sensor_id;sensor_type;location;lat;lon;timestamp;P1;durP1;ratioP1;P2;durP2;ratioP2
3704;SDS011;1868;48.918;9.438;2022-08-05T00:01:29;4.00;;;2.67;;
3704;SDS011;1868;48.918;9.438;2022-08-05T00:04:02;2.70;;;2.50;;
3704;SDS011;1868;48.918;9.438;2022-08-05T00:06:33;2.30;;;2.20;;
3704;SDS011;1868;48.918;9.438;2022-08-05T00:09:03;4.33;;;2.60;;
3704;SDS011;1868;48.918;9.438;2022-08-05T00:11:41;2.73;;;2.53;;
3704;SDS011;1868;48.918;9.438;2022-08-05T00:14:20;2.77;;;2.57;;
3704;SDS011;1868;48.918;9.438;2022-08-05T00:16:54;3.37;;;2.90;;
3704;SDS011;1868;48.918;9.438;2022-08-05T00:19:23;7.87;;;2.87;;
3704;SDS011;1868;48.918;9.438;2022-08-05T00:22:06;2.97;;;2.77;;
3704;SDS011;1868;48.918;9.438;2022-08-05T00:24:38;2.90;;;2.70;;
3704;SDS011;1868;48.918;9.438;2022-08-05T00:27:08;2.37;;;2.27;;
3704;SDS011;1868;48.918;9.438;2022-08-05T00:29:57;5.17;;;2.90;;
3704;SDS011;1868;48.918;9.438;2022-08-05T00:32:28;3.60;;;3.30;;
3704;SDS011;1868;48.918;9.438;2022-08-05T00:35:01;3.67;;;3.37;;
3704;SDS011;1868;48.918;9.438;2022-08-05T00:37:33;5.27;;;3.63;;
3704;SDS011;1868;48.918;9.438;2022-08-05T00:40:20;4.63;;;3.10;;
3704;SDS011;1868;48.918;9.438;2022-08-05T00:42:54;4.33;;;3.07;;
3704;SDS011;1868;48.918;9.438;2022-08-05T00:45:25;6.63;;;3.00;;
3704;SDS011;1868;48.918;9.438;2022-08-05T00:48:05;6.20;;;3.20;;
3704;SDS011;1868;48.918;9.438;2022-08-05T00:50:35;3.93;;;2.80;;
3704;SDS011;1868;48.918;9.438;2022-08-05T00:53:09;2.87;;;2.67;;
3704;SDS011;1868;48.918;9.438;2022-08-05T00:55:59;2.80;;;2.60;;
3704;SDS011;1868;48.918;9.438;2022-08-05T00:58:27;3.00;;;2.60;;
3704;SDS011;1868;48.918;9.438;2022-08-05T01:00:55;3.73;;;3.43;;
3704;SDS011;1868;48.918;9.438;2022-08-05T01:03:24;3.10;;;2.90;;
3704;SDS011;1868;48.918;9.438;2022-08-05T01:05:59;3.20;;;2.70;;
3704;SDS011;1868;48.918;9.438;2022-08-05T01:08:30;5.63;;;3.23;;
3704;SDS011;1868;48.918;9.438;2022-08-05T01:11:12;3.30;;;3.10;;
3704;SDS011;1868;48.918;9.438;2022-08-05T01:13:59;5.23;;;3.43;;
3704;SDS011;1868;48.918;9.438;2022-08-05T01:16:37;6.00;;;3.50;;
3704;SDS011;1868;48.918;9.438;2022-08-05T01:19:21;3.30;;;3.00;;
3704;SDS011;1868;48.918;9.438;2022-08-05T01:22:28;3.47;;;3.17;;
3704;SDS011;1868;48.918;9.438;2022-08-05T01:31:09;3.10;;;2.90;;
3704;SDS011;1868;48.918;9.438;2022-08-05T01:33:53;6.73;;;3.73;;
3704;SDS011;1868;48.918;9.438;2022-08-05T01:36:30;3.13;;;2.83;;
3704;SDS011;1868;48.918;9.438;2022-08-05T01:39:08;6.53;;;3.30;;
3704;SDS011;1868;48.918;9.438;2022-08-05T01:41:38;3.53;;;3.33;;
3704;SDS011;1868;48.918;9.438;2022-08-05T01:44:11;3.30;;;3.00;;
3704;SDS011;1868;48.918;9.438;2022-08-05T01:46:42;3.77;;;3.30;;
3704;SDS011;1868;48.918;9.438;2022-08-05T01:49:14;12.73;;;3.00;;
3704;SDS011;1868;48.918;9.438;2022-08-05T01:51:50;4.97;;;3.00;;
3704;SDS011;1868;48.918;9.438;2022-08-05T01:54:25;3.23;;;3.00;;
3704;SDS011;1868;48.918;9.438;2022-08-05T01:57:11;5.40;;;3.30;;
3704;SDS011;1868;48.918;9.438;2022-08-05T02:00:08;10.50;;;3.33;;
3704;SDS011;1868;48.918;9.438;2022-08-05T02:02:39;7.80;;;3.20;;
3704;SDS011;1868;48.918;9.438;2022-08-05T02:05:20;3.47;;;3.27;;
3704;SDS011;1868;48.918;9.438;2022-08-05T02:07:54;8.53;;;3.27;;
3704;SDS011;1868;48.918;9.438;2022-08-05T02:10:28;9.37;;;3.33;;
3704;SDS011;1868;48.918;9.438;2022-08-05T02:13:03;5.93;;;3.53;;
3704;SDS011;1868;48.918;9.438;2022-08-05T02:15:44;3.03;;;2.83;;
3704;SDS011;1868;48.918;9.438;2022-08-05T02:18:19;4.30;;;2.77;;
3704;SDS011;1868;48.918;9.438;2022-08-05T02:21:02;3.20;;;2.63;;
3704;SDS011;1868;48.918;9.438;2022-08-05T02:23:41;5.47;;;3.40;;
3704;SDS011;1868;48.918;9.438;2022-08-05T02:26:15;2.90;;;2.70;;
3704;SDS011;1868;48.918;9.438;2022-08-05T02:28:51;10.53;;;3.00;;
3704;SDS011;1868;48.918;9.438;2022-08-05T02:31:27;2.93;;;2.60;;
3704;SDS011;1868;48.918;9.438;2022-08-05T02:34:01;7.10;;;2.80;;
3704;SDS011;1868;48.918;9.438;2022-08-05T02:36:38;7.03;;;3.30;;
3704;SDS011;1868;48.918;9.438;2022-08-05T02:39:13;2.77;;;2.57;;
3704;SDS011;1868;48.918;9.438;2022-08-05T02:41:46;6.73;;;3.00;;
3704;SDS011;1868;48.918;9.438;2022-08-05T02:44:26;3.63;;;2.70;;
3704;SDS011;1868;48.918;9.438;2022-08-05T02:46:58;7.93;;;3.60;;
3704;SDS011;1868;48.918;9.438;2022-08-05T02:49:30;6.77;;;3.20;;
3704;SDS011;1868;48.918;9.438;2022-08-05T02:52:07;4.60;;;2.80;;
3704;SDS011;1868;48.918;9.438;2022-08-05T02:54:54;3.97;;;2.93;;
3704;SDS011;1868;48.918;9.438;2022-08-05T02:57:27;6.00;;;2.70;;
3704;SDS011;1868;48.918;9.438;2022-08-05T03:00:16;2.90;;;2.70;;
3704;SDS011;1868;48.918;9.438;2022-08-05T03:02:46;6.30;;;2.97;;
3704;SDS011;1868;48.918;9.438;2022-08-05T03:05:16;4.37;;;2.53;;
3704;SDS011;1868;48.918;9.438;2022-08-05T03:08:06;3.33;;;2.90;;
3704;SDS011;1868;48.918;9.438;2022-08-05T03:10:36;7.40;;;2.60;;
3704;SDS011;1868;48.918;9.438;2022-08-05T03:13:10;2.73;;;2.60;;
3704;SDS011;1868;48.918;9.438;2022-08-05T03:15:42;2.63;;;2.43;;
3704;SDS011;1868;48.918;9.438;2022-08-05T03:18:13;2.90;;;2.70;;
3704;SDS011;1868;48.918;9.438;2022-08-05T03:20:42;4.63;;;2.63;;
3704;SDS011;1868;48.918;9.438;2022-08-05T03:23:14;4.83;;;2.00;;
3704;SDS011;1868;48.918;9.438;2022-08-05T03:25:42;9.47;;;3.37;;
3704;SDS011;1868;48.918;9.438;2022-08-05T03:28:31;5.20;;;2.57;;
3704;SDS011;1868;48.918;9.438;2022-08-05T03:31:00;6.90;;;2.70;;
3704;SDS011;1868;48.918;9.438;2022-08-05T03:33:32;5.80;;;3.03;;
3704;SDS011;1868;48.918;9.438;2022-08-05T03:36:18;4.53;;;2.80;;
3704;SDS011;1868;48.918;9.438;2022-08-05T03:38:56;3.60;;;3.23;;
3704;SDS011;1868;48.918;9.438;2022-08-05T03:41:25;5.40;;;2.70;;
3704;SDS011;1868;48.918;9.438;2022-08-05T03:44:10;3.60;;;2.33;;
3704;SDS011;1868;48.918;9.438;2022-08-05T03:46:45;3.77;;;3.07;;
3704;SDS011;1868;48.918;9.438;2022-08-05T03:49:15;4.10;;;3.00;;
3704;SDS011;1868;48.918;9.438;2022-08-05T03:51:45;5.53;;;3.70;;
3704;SDS011;1868;48.918;9.438;2022-08-05T03:54:42;8.70;;;2.77;;
3704;SDS011;1868;48.918;9.438;2022-08-05T03:57:38;3.70;;;2.53;;
3704;SDS011;1868;48.918;9.438;2022-08-05T04:00:11;3.73;;;2.90;;
3704;SDS011;1868;48.918;9.438;2022-08-05T04:02:42;3.10;;;2.80;;
3704;SDS011;1868;48.918;9.438;2022-08-05T04:05:26;5.90;;;2.77;;
3704;SDS011;1868;48.918;9.438;2022-08-05T04:08:00;3.40;;;2.30;;
3704;SDS011;1868;48.918;9.438;2022-08-05T04:10:51;3.53;;;2.30;;
3704;SDS011;1868;48.918;9.438;2022-08-05T04:13:21;4.27;;;2.53;;
3704;SDS011;1868;48.918;9.438;2022-08-05T04:15:49;3.73;;;2.57;;
3704;SDS011;1868;48.918;9.438;2022-08-05T04:18:30;4.03;;;2.60;;
3704;SDS011;1868;48.918;9.438;2022-08-05T04:21:01;4.30;;;2.70;;
3704;SDS011;1868;48.918;9.438;2022-08-05T04:23:31;2.87;;;2.67;;
3704;SDS011;1868;48.918;9.438;2022-08-05T04:26:22;3.07;;;2.87;;
3704;SDS011;1868;48.918;9.438;2022-08-05T04:28:50;4.30;;;2.70;;
3704;SDS011;1868;48.918;9.438;2022-08-05T04:31:19;2.83;;;2.63;;
3704;SDS011;1868;48.918;9.438;2022-08-05T04:33:52;3.00;;;2.70;;
3704;SDS011;1868;48.918;9.438;2022-08-05T04:36:42;4.03;;;3.00;;
3704;SDS011;1868;48.918;9.438;2022-08-05T04:39:15;2.60;;;2.40;;
3704;SDS011;1868;48.918;9.438;2022-08-05T04:41:44;3.00;;;2.80;;
3704;SDS011;1868;48.918;9.438;2022-08-05T04:44:13;3.93;;;3.37;;
3704;SDS011;1868;48.918;9.438;2022-08-05T04:46:55;3.37;;;3.07;;
3704;SDS011;1868;48.918;9.438;2022-08-05T04:49:24;5.50;;;3.00;;
3704;SDS011;1868;48.918;9.438;2022-08-05T04:52:14;4.87;;;3.30;;
3704;SDS011;1868;48.918;9.438;2022-08-05T04:54:44;4.03;;;2.63;;
3704;SDS011;1868;48.918;9.438;2022-08-05T04:57:14;4.13;;;3.33;;
3704;SDS011;1868;48.918;9.438;2022-08-05T04:59:42;5.87;;;2.70;;
3704;SDS011;1868;48.918;9.438;2022-08-05T05:02:13;3.87;;;3.53;;
3704;SDS011;1868;48.918;9.438;2022-08-05T05:05:02;5.53;;;3.03;;
3704;SDS011;1868;48.918;9.438;2022-08-05T05:07:52;5.50;;;3.37;;
3704;SDS011;1868;48.918;9.438;2022-08-05T05:10:27;4.00;;;2.70;;
3704;SDS011;1868;48.918;9.438;2022-08-05T05:12:59;3.97;;;3.07;;
3704;SDS011;1868;48.918;9.438;2022-08-05T05:15:30;7.13;;;3.30;;
3704;SDS011;1868;48.918;9.438;2022-08-05T05:18:19;3.57;;;3.27;;
3704;SDS011;1868;48.918;9.438;2022-08-05T05:20:58;6.60;;;3.13;;
3704;SDS011;1868;48.918;9.438;2022-08-05T05:23:28;3.40;;;3.13;;
3704;SDS011;1868;48.918;9.438;2022-08-05T05:26:16;5.83;;;3.37;;
3704;SDS011;1868;48.918;9.438;2022-08-05T05:28:54;6.17;;;3.20;;
3704;SDS011;1868;48.918;9.438;2022-08-05T05:31:22;9.07;;;3.70;;
3704;SDS011;1868;48.918;9.438;2022-08-05T05:33:56;7.80;;;3.70;;
3704;SDS011;1868;48.918;9.438;2022-08-05T05:36:28;4.77;;;3.00;;
3704;SDS011;1868;48.918;9.438;2022-08-05T05:38:58;5.13;;;2.70;;
3704;SDS011;1868;48.918;9.438;2022-08-05T05:41:29;4.70;;;3.73;;
3704;SDS011;1868;48.918;9.438;2022-08-05T05:44:07;5.70;;;3.20;;
3704;SDS011;1868;48.918;9.438;2022-08-05T05:46:56;4.40;;;2.97;;
3704;SDS011;1868;48.918;9.438;2022-08-05T05:49:29;7.37;;;2.97;;
3704;SDS011;1868;48.918;9.438;2022-08-05T05:51:58;5.00;;;3.27;;
3704;SDS011;1868;48.918;9.438;2022-08-05T05:54:34;6.00;;;2.83;;
3704;SDS011;1868;48.918;9.438;2022-08-05T05:57:16;22.17;;;14.17;;
3704;SDS011;1868;48.918;9.438;2022-08-05T05:59:45;10.50;;;4.17;;
3704;SDS011;1868;48.918;9.438;2022-08-05T06:02:14;8.63;;;4.20;;
3704;SDS011;1868;48.918;9.438;2022-08-05T06:04:58;8.87;;;4.50;;
3704;SDS011;1868;48.918;9.438;2022-08-05T06:07:35;4.40;;;4.00;;
3704;SDS011;1868;48.918;9.438;2022-08-05T06:10:09;12.60;;;3.73;;
3704;SDS011;1868;48.918;9.438;2022-08-05T06:12:40;4.53;;;4.03;;
3704;SDS011;1868;48.918;9.438;2022-08-05T06:15:10;8.90;;;4.37;;
3704;SDS011;1868;48.918;9.438;2022-08-05T06:17:49;6.93;;;3.63;;
3704;SDS011;1868;48.918;9.438;2022-08-05T06:20:20;7.83;;;3.40;;
3704;SDS011;1868;48.918;9.438;2022-08-05T06:22:48;9.70;;;4.83;;
3704;SDS011;1868;48.918;9.438;2022-08-05T06:25:18;5.53;;;4.20;;
3704;SDS011;1868;48.918;9.438;2022-08-05T06:28:07;9.03;;;3.53;;
3704;SDS011;1868;48.918;9.438;2022-08-05T06:30:46;5.23;;;3.67;;
3704;SDS011;1868;48.918;9.438;2022-08-05T06:33:14;12.50;;;4.00;;
3704;SDS011;1868;48.918;9.438;2022-08-05T06:36:06;3.97;;;2.60;;
3704;SDS011;1868;48.918;9.438;2022-08-05T06:38:36;7.63;;;3.63;;
3704;SDS011;1868;48.918;9.438;2022-08-05T06:41:13;6.03;;;3.50;;
3704;SDS011;1868;48.918;9.438;2022-08-05T06:43:47;6.10;;;3.07;;
3704;SDS011;1868;48.918;9.438;2022-08-05T06:46:26;8.17;;;3.80;;
3704;SDS011;1868;48.918;9.438;2022-08-05T06:48:58;6.33;;;3.13;;
3704;SDS011;1868;48.918;9.438;2022-08-05T06:51:31;4.40;;;3.00;;
3704;SDS011;1868;48.918;9.438;2022-08-05T06:54:01;4.03;;;3.53;;
3704;SDS011;1868;48.918;9.438;2022-08-05T06:56:34;6.10;;;4.90;;
3704;SDS011;1868;48.918;9.438;2022-08-05T06:59:03;8.90;;;4.70;;
3704;SDS011;1868;48.918;9.438;2022-08-05T07:01:35;6.77;;;2.90;;
3704;SDS011;1868;48.918;9.438;2022-08-05T07:04:07;3.60;;;2.57;;
3704;SDS011;1868;48.918;9.438;2022-08-05T07:06:39;4.20;;;2.07;;
3704;SDS011;1868;48.918;9.438;2022-08-05T07:09:07;3.90;;;2.97;;
3704;SDS011;1868;48.918;9.438;2022-08-05T07:11:37;4.30;;;2.53;;
3704;SDS011;1868;48.918;9.438;2022-08-05T07:14:06;4.23;;;2.23;;
3704;SDS011;1868;48.918;9.438;2022-08-05T07:16:55;6.67;;;3.70;;
3704;SDS011;1868;48.918;9.438;2022-08-05T07:19:47;4.93;;;2.97;;
3704;SDS011;1868;48.918;9.438;2022-08-05T07:22:38;2.57;;;2.37;;
3704;SDS011;1868;48.918;9.438;2022-08-05T07:25:07;7.70;;;2.53;;
3704;SDS011;1868;48.918;9.438;2022-08-05T07:27:58;3.87;;;2.73;;
3704;SDS011;1868;48.918;9.438;2022-08-05T07:30:35;5.43;;;2.23;;
3704;SDS011;1868;48.918;9.438;2022-08-05T07:33:06;2.37;;;2.17;;
3704;SDS011;1868;48.918;9.438;2022-08-05T07:35:42;3.73;;;2.70;;
3704;SDS011;1868;48.918;9.438;2022-08-05T07:38:31;4.27;;;1.93;;
3704;SDS011;1868;48.918;9.438;2022-08-05T07:41:10;7.13;;;2.23;;
3704;SDS011;1868;48.918;9.438;2022-08-05T07:44:04;2.17;;;2.07;;
3704;SDS011;1868;48.918;9.438;2022-08-05T07:46:44;9.13;;;2.10;;
3704;SDS011;1868;48.918;9.438;2022-08-05T07:49:15;2.43;;;1.70;;
3704;SDS011;1868;48.918;9.438;2022-08-05T07:51:44;1.70;;;1.60;;
3704;SDS011;1868;48.918;9.438;2022-08-05T07:54:20;8.47;;;2.53;;
3704;SDS011;1868;48.918;9.438;2022-08-05T07:56:58;3.43;;;1.43;;
3704;SDS011;1868;48.918;9.438;2022-08-05T07:59:49;2.93;;;1.83;;
3704;SDS011;1868;48.918;9.438;2022-08-05T08:02:22;1.73;;;1.63;;
3704;SDS011;1868;48.918;9.438;2022-08-05T08:04:57;6.33;;;1.83;;
3704;SDS011;1868;48.918;9.438;2022-08-05T08:07:26;5.70;;;1.70;;
3704;SDS011;1868;48.918;9.438;2022-08-05T08:10:15;1.77;;;1.63;;
3704;SDS011;1868;48.918;9.438;2022-08-05T08:12:46;8.30;;;1.73;;
3704;SDS011;1868;48.918;9.438;2022-08-05T08:15:16;3.50;;;2.00;;
3704;SDS011;1868;48.918;9.438;2022-08-05T08:18:05;2.00;;;1.60;;
3704;SDS011;1868;48.918;9.438;2022-08-05T08:20:39;3.30;;;1.80;;
3704;SDS011;1868;48.918;9.438;2022-08-05T08:23:28;4.93;;;1.80;;
3704;SDS011;1868;48.918;9.438;2022-08-05T08:26:16;1.53;;;1.43;;
3704;SDS011;1868;48.918;9.438;2022-08-05T08:28:55;1.80;;;1.10;;
3704;SDS011;1868;48.918;9.438;2022-08-05T08:31:46;3.17;;;1.50;;
3704;SDS011;1868;48.918;9.438;2022-08-05T08:34:15;1.80;;;1.70;;
3704;SDS011;1868;48.918;9.438;2022-08-05T08:36:58;1.23;;;1.13;;
3704;SDS011;1868;48.918;9.438;2022-08-05T08:39:30;2.00;;;1.57;;
3704;SDS011;1868;48.918;9.438;2022-08-05T08:42:03;3.33;;;1.50;;
3704;SDS011;1868;48.918;9.438;2022-08-05T08:44:53;1.10;;;1.10;;
3704;SDS011;1868;48.918;9.438;2022-08-05T08:47:44;9.43;;;8.53;;
3704;SDS011;1868;48.918;9.438;2022-08-05T08:50:34;1.63;;;1.50;;
3704;SDS011;1868;48.918;9.438;2022-08-05T08:53:26;3.30;;;1.57;;
3704;SDS011;1868;48.918;9.438;2022-08-05T08:56:01;2.77;;;1.30;;
3704;SDS011;1868;48.918;9.438;2022-08-05T08:58:31;2.63;;;1.30;;
3704;SDS011;1868;48.918;9.438;2022-08-05T09:01:10;1.43;;;1.33;;
3704;SDS011;1868;48.918;9.438;2022-08-05T09:03:45;1.17;;;1.07;;
3704;SDS011;1868;48.918;9.438;2022-08-05T09:06:21;3.27;;;1.30;;
3704;SDS011;1868;48.918;9.438;2022-08-05T09:08:56;1.60;;;1.50;;
3704;SDS011;1868;48.918;9.438;2022-08-05T09:11:26;1.40;;;1.33;;
3704;SDS011;1868;48.918;9.438;2022-08-05T09:14:15;4.83;;;1.43;;
3704;SDS011;1868;48.918;9.438;2022-08-05T09:17:04;1.27;;;1.23;;
3704;SDS011;1868;48.918;9.438;2022-08-05T09:19:57;1.03;;;1.03;;
3704;SDS011;1868;48.918;9.438;2022-08-05T09:23:01;3.80;;;1.27;;
3704;SDS011;1868;48.918;9.438;2022-08-05T09:25:47;1.23;;;1.20;;
3704;SDS011;1868;48.918;9.438;2022-08-05T09:28:30;2.50;;;1.20;;
3704;SDS011;1868;48.918;9.438;2022-08-05T09:31:01;4.03;;;1.00;;
3704;SDS011;1868;48.918;9.438;2022-08-05T09:33:52;1.80;;;1.00;;
3704;SDS011;1868;48.918;9.438;2022-08-05T09:36:36;1.53;;;1.20;;
3704;SDS011;1868;48.918;9.438;2022-08-05T09:39:24;1.10;;;1.10;;
3704;SDS011;1868;48.918;9.438;2022-08-05T09:42:12;1.00;;;1.00;;
3704;SDS011;1868;48.918;9.438;2022-08-05T09:44:50;2.40;;;1.10;;
3704;SDS011;1868;48.918;9.438;2022-08-05T09:47:23;0.80;;;0.80;;
3704;SDS011;1868;48.918;9.438;2022-08-05T09:50:13;1.10;;;1.10;;
3704;SDS011;1868;48.918;9.438;2022-08-05T09:53:05;2.23;;;0.93;;
3704;SDS011;1868;48.918;9.438;2022-08-05T09:55:38;1.17;;;1.07;;
3704;SDS011;1868;48.918;9.438;2022-08-05T09:58:25;4.90;;;0.77;;
3704;SDS011;1868;48.918;9.438;2022-08-05T10:00:56;1.30;;;1.20;;
3704;SDS011;1868;48.918;9.438;2022-08-05T10:03:38;4.20;;;0.90;;
3704;SDS011;1868;48.918;9.438;2022-08-05T10:06:25;1.20;;;0.90;;
3704;SDS011;1868;48.918;9.438;2022-08-05T10:08:58;0.90;;;0.90;;
3704;SDS011;1868;48.918;9.438;2022-08-05T10:11:54;0.83;;;0.70;;
3704;SDS011;1868;48.918;9.438;2022-08-05T10:15:05;1.00;;;1.00;;
3704;SDS011;1868;48.918;9.438;2022-08-05T10:18:00;0.87;;;0.87;;
3704;SDS011;1868;48.918;9.438;2022-08-05T10:20:38;2.57;;;1.10;;
3704;SDS011;1868;48.918;9.438;2022-08-05T10:23:15;2.10;;;0.80;;
3704;SDS011;1868;48.918;9.438;2022-08-05T10:26:08;2.90;;;1.10;;
3704;SDS011;1868;48.918;9.438;2022-08-05T10:28:40;1.00;;;0.77;;
3704;SDS011;1868;48.918;9.438;2022-08-05T10:31:11;3.13;;;0.98;;
3704;SDS011;1868;48.918;9.438;2022-08-05T10:34:01;1.40;;;1.02;;
3704;SDS011;1868;48.918;9.438;2022-08-05T10:36:34;0.88;;;0.88;;
3704;SDS011;1868;48.918;9.438;2022-08-05T10:39:06;0.80;;;0.80;;
3704;SDS011;1868;48.918;9.438;2022-08-05T10:41:54;1.13;;;0.70;;
3704;SDS011;1868;48.918;9.438;2022-08-05T10:44:30;1.20;;;0.73;;
3704;SDS011;1868;48.918;9.438;2022-08-05T10:46:59;1.30;;;0.95;;
3704;SDS011;1868;48.918;9.438;2022-08-05T10:50:00;1.08;;;0.90;;
3704;SDS011;1868;48.918;9.438;2022-08-05T10:52:54;1.05;;;0.95;;
3704;SDS011;1868;48.918;9.438;2022-08-05T10:55:24;0.70;;;0.65;;
3704;SDS011;1868;48.918;9.438;2022-08-05T10:58:06;1.77;;;0.80;;
3704;SDS011;1868;48.918;9.438;2022-08-05T11:00:36;1.75;;;0.65;;
3704;SDS011;1868;48.918;9.438;2022-08-05T11:03:12;1.60;;;0.90;;
3704;SDS011;1868;48.918;9.438;2022-08-05T11:06:08;2.78;;;0.63;;
3704;SDS011;1868;48.918;9.438;2022-08-05T11:11:57;4.88;;;1.08;;
3704;SDS011;1868;48.918;9.438;2022-08-05T11:14:28;0.80;;;0.80;;
3704;SDS011;1868;48.918;9.438;2022-08-05T11:17:28;1.95;;;0.77;;
3704;SDS011;1868;48.918;9.438;2022-08-05T11:26:30;1.55;;;0.90;;
3704;SDS011;1868;48.918;9.438;2022-08-05T11:28:59;1.13;;;1.05;;
3704;SDS011;1868;48.918;9.438;2022-08-05T11:31:41;2.25;;;0.70;;
3704;SDS011;1868;48.918;9.438;2022-08-05T11:34:33;0.90;;;0.90;;
3704;SDS011;1868;48.918;9.438;2022-08-05T11:37:04;2.35;;;0.90;;
3704;SDS011;1868;48.918;9.438;2022-08-05T11:39:53;1.85;;;0.88;;
3704;SDS011;1868;48.918;9.438;2022-08-05T11:42:31;0.88;;;0.70;;
3704;SDS011;1868;48.918;9.438;2022-08-05T11:45:06;0.63;;;0.63;;
3704;SDS011;1868;48.918;9.438;2022-08-05T11:47:57;0.77;;;0.77;;
3704;SDS011;1868;48.918;9.438;2022-08-05T11:50:26;0.98;;;0.65;;
3704;SDS011;1868;48.918;9.438;2022-08-05T11:52:54;0.80;;;0.80;;
3704;SDS011;1868;48.918;9.438;2022-08-05T11:55:24;0.70;;;0.70;;
3704;SDS011;1868;48.918;9.438;2022-08-05T11:58:01;0.68;;;0.68;;
3704;SDS011;1868;48.918;9.438;2022-08-05T12:00:37;1.25;;;1.00;;
3704;SDS011;1868;48.918;9.438;2022-08-05T12:03:17;0.52;;;0.52;;
3704;SDS011;1868;48.918;9.438;2022-08-05T12:05:59;0.80;;;0.65;;
3704;SDS011;1868;48.918;9.438;2022-08-05T12:08:39;2.08;;;0.77;;
3704;SDS011;1868;48.918;9.438;2022-08-05T12:11:17;0.70;;;0.70;;
3704;SDS011;1868;48.918;9.438;2022-08-05T12:13:53;3.55;;;0.90;;
3704;SDS011;1868;48.918;9.438;2022-08-05T12:16:30;0.70;;;0.70;;
3704;SDS011;1868;48.918;9.438;2022-08-05T12:19:05;2.15;;;0.80;;
3704;SDS011;1868;48.918;9.438;2022-08-05T12:21:56;9.65;;;0.80;;
3704;SDS011;1868;48.918;9.438;2022-08-05T12:24:26;1.05;;;0.70;;
3704;SDS011;1868;48.918;9.438;2022-08-05T12:26:55;0.63;;;0.63;;
3704;SDS011;1868;48.918;9.438;2022-08-05T12:29:24;1.77;;;0.80;;
3704;SDS011;1868;48.918;9.438;2022-08-05T12:32:04;0.77;;;0.70;;
3704;SDS011;1868;48.918;9.438;2022-08-05T12:34:36;2.05;;;1.00;;
3704;SDS011;1868;48.918;9.438;2022-08-05T12:37:05;0.95;;;0.77;;
3704;SDS011;1868;48.918;9.438;2022-08-05T12:39:47;0.70;;;0.70;;
3704;SDS011;1868;48.918;9.438;2022-08-05T12:42:19;0.82;;;0.80;;
3704;SDS011;1868;48.918;9.438;2022-08-05T12:44:50;1.02;;;0.90;;
3704;SDS011;1868;48.918;9.438;2022-08-05T12:47:25;1.00;;;0.90;;
3704;SDS011;1868;48.918;9.438;2022-08-05T12:49:57;0.70;;;0.70;;
3704;SDS011;1868;48.918;9.438;2022-08-05T12:52:31;0.70;;;0.70;;
3704;SDS011;1868;48.918;9.438;2022-08-05T12:55:17;1.40;;;0.77;;
3704;SDS011;1868;48.918;9.438;2022-08-05T12:57:51;0.82;;;0.82;;
3704;SDS011;1868;48.918;9.438;2022-08-05T13:00:41;1.10;;;1.10;;
3704;SDS011;1868;48.918;9.438;2022-08-05T13:03:33;0.82;;;0.82;;
3704;SDS011;1868;48.918;9.438;2022-08-05T13:06:14;1.10;;;1.10;;
3704;SDS011;1868;48.918;9.438;2022-08-05T13:08:45;0.90;;;0.90;;
3704;SDS011;1868;48.918;9.438;2022-08-05T13:11:18;1.30;;;0.60;;
3704;SDS011;1868;48.918;9.438;2022-08-05T13:14:09;2.25;;;0.80;;
3704;SDS011;1868;48.918;9.438;2022-08-05T13:16:49;0.77;;;0.77;;
3704;SDS011;1868;48.918;9.438;2022-08-05T13:19:22;0.70;;;0.70;;
3704;SDS011;1868;48.918;9.438;2022-08-05T13:22:14;1.40;;;1.30;;
3704;SDS011;1868;48.918;9.438;2022-08-05T13:24:55;4.18;;;0.90;;
3704;SDS011;1868;48.918;9.438;2022-08-05T13:27:31;2.15;;;0.90;;
3704;SDS011;1868;48.918;9.438;2022-08-05T13:30:04;0.85;;;0.85;;
3704;SDS011;1868;48.918;9.438;2022-08-05T13:32:55;1.67;;;0.90;;
3704;SDS011;1868;48.918;9.438;2022-08-05T13:35:27;1.05;;;0.90;;
3704;SDS011;1868;48.918;9.438;2022-08-05T13:38:17;5.60;;;0.90;;
3704;SDS011;1868;48.918;9.438;2022-08-05T13:41:03;2.77;;;2.37;;
3704;SDS011;1868;48.918;9.438;2022-08-05T13:43:32;1.27;;;1.27;;
3704;SDS011;1868;48.918;9.438;2022-08-05T13:46:20;3.43;;;1.13;;
3704;SDS011;1868;48.918;9.438;2022-08-05T13:49:09;1.10;;;0.97;;
3704;SDS011;1868;48.918;9.438;2022-08-05T13:51:38;1.00;;;1.00;;
3704;SDS011;1868;48.918;9.438;2022-08-05T13:54:13;1.80;;;1.00;;
3704;SDS011;1868;48.918;9.438;2022-08-05T13:56:50;0.80;;;0.80;;
3704;SDS011;1868;48.918;9.438;2022-08-05T13:59:20;1.07;;;1.00;;
3704;SDS011;1868;48.918;9.438;2022-08-05T14:01:52;2.00;;;1.20;;
3704;SDS011;1868;48.918;9.438;2022-08-05T14:04:24;0.97;;;0.97;;
3704;SDS011;1868;48.918;9.438;2022-08-05T14:07:17;1.30;;;1.27;;
3704;SDS011;1868;48.918;9.438;2022-08-05T14:10:10;2.87;;;1.20;;
3704;SDS011;1868;48.918;9.438;2022-08-05T14:12:53;0.80;;;0.80;;
3704;SDS011;1868;48.918;9.438;2022-08-05T14:15:22;1.43;;;1.20;;
3704;SDS011;1868;48.918;9.438;2022-08-05T14:18:12;2.57;;;1.27;;
3704;SDS011;1868;48.918;9.438;2022-08-05T14:20:48;4.60;;;1.47;;
3704;SDS011;1868;48.918;9.438;2022-08-05T14:23:20;2.20;;;1.07;;
3704;SDS011;1868;48.918;9.438;2022-08-05T14:25:53;1.17;;;1.00;;
3704;SDS011;1868;48.918;9.438;2022-08-05T14:28:24;1.07;;;0.97;;
3704;SDS011;1868;48.918;9.438;2022-08-05T14:30:54;1.10;;;1.00;;
3704;SDS011;1868;48.918;9.438;2022-08-05T14:33:22;1.00;;;1.00;;
3704;SDS011;1868;48.918;9.438;2022-08-05T14:35:51;3.20;;;1.20;;
3704;SDS011;1868;48.918;9.438;2022-08-05T14:38:20;1.17;;;1.13;;
3704;SDS011;1868;48.918;9.438;2022-08-05T14:41:01;1.33;;;1.30;;
3704;SDS011;1868;48.918;9.438;2022-08-05T14:43:33;1.50;;;1.40;;
3704;SDS011;1868;48.918;9.438;2022-08-05T14:46:23;1.23;;;1.20;;
3704;SDS011;1868;48.918;9.438;2022-08-05T14:48:57;1.53;;;1.43;;
3704;SDS011;1868;48.918;9.438;2022-08-05T14:51:33;1.40;;;1.30;;
3704;SDS011;1868;48.918;9.438;2022-08-05T14:54:03;6.17;;;1.60;;
3704;SDS011;1868;48.918;9.438;2022-08-05T14:56:53;4.03;;;1.90;;
3704;SDS011;1868;48.918;9.438;2022-08-05T14:59:21;3.40;;;3.20;;
3704;SDS011;1868;48.918;9.438;2022-08-05T15:01:50;3.33;;;2.30;;
3704;SDS011;1868;48.918;9.438;2022-08-05T15:04:19;2.00;;;1.60;;
3704;SDS011;1868;48.918;9.438;2022-08-05T15:06:52;3.87;;;1.70;;
3704;SDS011;1868;48.918;9.438;2022-08-05T15:09:21;1.83;;;1.70;;
3704;SDS011;1868;48.918;9.438;2022-08-05T15:12:11;3.10;;;1.80;;
3704;SDS011;1868;48.918;9.438;2022-08-05T15:14:42;1.73;;;1.67;;
3704;SDS011;1868;48.918;9.438;2022-08-05T15:17:16;2.60;;;1.90;;
3704;SDS011;1868;48.918;9.438;2022-08-05T15:20:06;4.30;;;2.27;;
3704;SDS011;1868;48.918;9.438;2022-08-05T15:22:45;2.97;;;2.40;;
3704;SDS011;1868;48.918;9.438;2022-08-05T15:25:20;5.30;;;2.07;;
3704;SDS011;1868;48.918;9.438;2022-08-05T15:28:11;7.43;;;2.10;;
3704;SDS011;1868;48.918;9.438;2022-08-05T15:30:41;2.43;;;2.33;;
3704;SDS011;1868;48.918;9.438;2022-08-05T15:33:11;3.77;;;2.40;;
3704;SDS011;1868;48.918;9.438;2022-08-05T15:36:01;3.77;;;2.30;;
3704;SDS011;1868;48.918;9.438;2022-08-05T15:38:30;3.90;;;2.37;;
3704;SDS011;1868;48.918;9.438;2022-08-05T15:41:07;2.23;;;2.03;;
3704;SDS011;1868;48.918;9.438;2022-08-05T15:43:51;5.40;;;2.70;;
3704;SDS011;1868;48.918;9.438;2022-08-05T15:46:20;1.90;;;1.80;;
3704;SDS011;1868;48.918;9.438;2022-08-05T15:48:50;3.80;;;2.47;;
3704;SDS011;1868;48.918;9.438;2022-08-05T15:51:35;5.63;;;2.10;;
3704;SDS011;1868;48.918;9.438;2022-08-05T15:54:23;3.43;;;2.37;;
3704;SDS011;1868;48.918;9.438;2022-08-05T15:57:00;9.73;;;2.10;;
3704;SDS011;1868;48.918;9.438;2022-08-05T15:59:34;2.50;;;1.97;;
3704;SDS011;1868;48.918;9.438;2022-08-05T16:02:03;3.97;;;2.33;;
3704;SDS011;1868;48.918;9.438;2022-08-05T16:04:40;2.80;;;2.10;;
3704;SDS011;1868;48.918;9.438;2022-08-05T16:07:09;2.30;;;2.10;;
3704;SDS011;1868;48.918;9.438;2022-08-05T16:09:38;1.73;;;1.63;;
3704;SDS011;1868;48.918;9.438;2022-08-05T16:12:09;3.47;;;1.87;;
3704;SDS011;1868;48.918;9.438;2022-08-05T16:14:38;3.17;;;2.10;;
3704;SDS011;1868;48.918;9.438;2022-08-05T16:17:08;2.50;;;2.30;;
3704;SDS011;1868;48.918;9.438;2022-08-05T16:19:38;2.23;;;2.03;;
3704;SDS011;1868;48.918;9.438;2022-08-05T16:22:28;3.73;;;2.23;;
3704;SDS011;1868;48.918;9.438;2022-08-05T16:25:00;2.23;;;2.13;;
3704;SDS011;1868;48.918;9.438;2022-08-05T16:27:35;2.10;;;2.00;;
3704;SDS011;1868;48.918;9.438;2022-08-05T16:30:25;8.37;;;2.50;;
3704;SDS011;1868;48.918;9.438;2022-08-05T16:32:57;4.30;;;2.50;;
3704;SDS011;1868;48.918;9.438;2022-08-05T16:35:26;1.83;;;1.73;;